Time;durP1;ratioP1;P1;durP2;ratioP2;P2;SDS_P1;SDS_P2;PMS_P1;PMS_P2;Temp;Humidity;BMP_temperature;BMP_pressure;BME280_temperature;BME280_humidity;BME280_pressure;Samples;Min_cycle;Max_cycle;Signal;HPM_P1;HPM_P2
2020/12/26 06:01:56;;;;;;;17.10;7.77;;;-1.40;97.30;;;;;;5320395;23;20512;-73
2020/12/26 06:04:22;;;;;;;18.47;8.03;;;-1.40;97.30;;;;;;4914894;29;20985;-73
2020/12/26 06:06:52;;;;;;;15.63;7.80;;;-1.50;97.30;;;;;;4915557;29;20428;-73
2020/12/26 06:09:21;;;;;;;16.07;7.90;;;-1.50;97.30;;;;;;4915281;29;20212;-73
2020/12/26 06:11:48;;;;;;;17.20;8.03;;;-1.50;97.30;;;;;;4915183;29;20440;-73
2020/12/26 06:14:19;;;;;;;13.00;6.97;;;-1.50;97.30;;;;;;4916645;29;20440;-73
2020/12/26 06:16:53;;;;;;;21.07;8.30;;;-1.50;97.30;;;;;;4915416;29;20926;-73
2020/12/26 06:19:29;;;;;;;19.70;8.53;;;-1.50;97.30;;;;;;4915913;29;20848;-73
2020/12/26 06:21:58;;;;;;;16.40;7.70;;;-1.50;97.30;;;;;;4919283;29;20468;-73
2020/12/26 06:24:24;;;;;;;18.10;7.90;;;-1.50;97.30;;;;;;4918493;29;20429;-73
2020/12/26 06:26:59;;;;;;;15.67;8.10;;;-1.50;97.30;;;;;;4919428;29;20424;-73
2020/12/26 06:29:31;;;;;;;20.53;7.50;;;-1.50;97.30;;;;;;4918012;29;20192;-73
2020/12/26 06:31:59;;;;;;;15.73;7.60;;;-1.40;97.30;;;;;;4917563;29;20819;-73
2020/12/26 06:34:25;;;;;;;15.63;7.50;;;-1.50;97.30;;;;;;4915265;29;20519;-73
2020/12/26 06:36:55;;;;;;;17.57;7.00;;;-1.40;97.30;;;;;;4919602;29;20755;-73
2020/12/26 06:39:32;;;;;;;16.10;7.13;;;-1.40;97.30;;;;;;4918764;29;20436;-73
2020/12/26 06:42:10;;;;;;;11.80;6.40;;;-1.40;97.30;;;;;;4917821;29;20456;-76
2020/12/26 06:44:36;;;;;;;15.10;7.50;;;-1.40;97.30;;;;;;4917915;29;20436;-73
2020/12/26 06:47:02;;;;;;;20.37;7.37;;;-1.40;97.30;;;;;;4918015;29;20586;-73
2020/12/26 06:49:28;;;;;;;17.07;8.00;;;-1.40;97.30;;;;;;4917459;29;20296;-73
2020/12/26 06:51:55;;;;;;;17.00;7.30;;;-1.40;97.30;;;;;;4917539;29;20543;-73
2020/12/26 06:54:45;;;;;;;14.20;7.37;;;-1.40;97.30;;;;;;4917470;29;20680;-74
2020/12/26 06:57:41;;;;;;;15.30;6.90;;;-1.40;97.30;;;;;;4916549;29;20516;-72
2020/12/26 07:00:40;;;;;;;17.00;6.37;;;-1.30;97.30;;;;;;4913113;29;20519;-75
2020/12/26 07:03:35;;;;;;;16.70;6.90;;;-1.30;97.30;;;;;;4861667;29;20439;-73
2020/12/26 07:06:02;;;;;;;12.67;6.87;;;-1.30;97.30;;;;;;4873368;29;20662;-74
2020/12/26 07:08:31;;;;;;;18.50;7.13;;;-1.30;97.30;;;;;;4917505;29;20413;-73
2020/12/26 07:10:59;;;;;;;11.50;6.37;;;-1.30;97.30;;;;;;4918518;29;20429;-73
2020/12/26 07:13:47;;;;;;;17.33;6.70;;;-1.30;97.30;;;;;;4916963;29;20484;-74
2020/12/26 07:16:47;;;;;;;14.83;6.60;;;-1.30;97.30;;;;;;4915357;29;20427;-73
2020/12/26 07:19:39;;;;;;;12.50;6.60;;;-1.20;97.30;;;;;;4916468;29;20440;-75
2020/12/26 07:22:16;;;;;;;14.90;7.10;;;-1.20;97.30;;;;;;4917356;29;20456;-74
2020/12/26 07:24:55;;;;;;;15.27;7.10;;;-1.20;97.30;;;;;;4916650;29;20516;-73
2020/12/26 07:27:37;;;;;;;15.97;6.40;;;-1.20;97.30;;;;;;4917208;29;20413;-73
2020/12/26 07:30:10;;;;;;;13.97;6.90;;;-1.10;97.30;;;;;;4916190;29;20424;-73
2020/12/26 07:32:40;;;;;;;14.27;6.87;;;-1.10;97.30;;;;;;4917424;29;20436;-73
2020/12/26 07:35:11;;;;;;;14.70;7.50;;;-1.10;97.30;;;;;;4918238;29;20420;-73
2020/12/26 07:37:43;;;;;;;14.03;6.63;;;-1.00;97.30;;;;;;4916536;29;20492;-73
2020/12/26 07:40:14;;;;;;;18.20;7.60;;;-1.00;97.30;;;;;;4930470;29;20453;-73
2020/12/26 07:42:42;;;;;;;13.00;5.77;;;-1.00;97.30;;;;;;4918423;29;20444;-73
2020/12/26 07:45:13;;;;;;;14.07;6.20;;;-0.90;97.30;;;;;;4913475;29;20419;-73
2020/12/26 07:47:43;;;;;;;15.93;7.30;;;-0.90;97.30;;;;;;4916767;29;20822;-73
2020/12/26 07:50:10;;;;;;;14.73;6.70;;;-0.80;97.30;;;;;;4916714;29;20405;-73
2020/12/26 07:52:36;;;;;;;15.47;6.43;;;-0.80;97.30;;;;;;4915775;29;20441;-73
2020/12/26 07:55:04;;;;;;;13.80;6.83;;;-0.80;97.30;;;;;;4913144;29;20420;-74
2020/12/26 07:57:30;;;;;;;18.67;8.43;;;-0.70;97.30;;;;;;4914372;29;20425;-74
2020/12/26 07:59:56;;;;;;;13.97;6.50;;;-0.60;97.30;;;;;;4916605;29;20837;-73
2020/12/26 08:02:22;;;;;;;19.53;6.70;;;-0.60;97.30;;;;;;4916585;29;20453;-73
2020/12/26 08:04:49;;;;;;;17.57;7.30;;;-0.50;97.30;;;;;;4916031;29;20424;-73
2020/12/26 08:07:19;;;;;;;13.73;7.33;;;-0.50;97.30;;;;;;4915947;29;20487;-73
2020/12/26 08:09:52;;;;;;;20.60;6.73;;;-0.40;97.30;;;;;;4932393;29;20428;-74
2020/12/26 08:12:19;;;;;;;19.43;7.50;;;-0.40;97.30;;;;;;4917313;29;20452;-74
2020/12/26 08:14:55;;;;;;;12.20;6.20;;;-0.30;97.30;;;;;;4917318;29;20425;-73
2020/12/26 08:17:22;;;;;;;13.10;7.03;;;-0.20;97.30;;;;;;4913888;29;20416;-74
2020/12/26 08:19:48;;;;;;;11.13;5.67;;;-0.20;97.30;;;;;;4917499;29;20476;-73
2020/12/26 08:22:14;;;;;;;15.83;6.60;;;-0.20;97.30;;;;;;4915977;29;20498;-74
2020/12/26 08:24:40;;;;;;;14.30;5.90;;;-0.10;97.30;;;;;;4932216;29;20417;-74
2020/12/26 08:27:06;;;;;;;21.83;6.90;;;-0.10;97.30;;;;;;4917700;29;20487;-74
2020/12/26 08:29:33;;;;;;;12.80;6.30;;;0.00;97.30;;;;;;4917787;29;20177;-73
2020/12/26 08:32:11;;;;;;;10.87;5.43;;;0.00;97.30;;;;;;4917628;29;20200;-73
2020/12/26 08:35:03;;;;;;;10.33;5.37;;;0.00;97.30;;;;;;4916080;29;20425;-73
2020/12/26 08:38:10;;;;;;;10.17;6.07;;;0.10;97.30;;;;;;4915711;29;20431;-73
2020/12/26 08:40:39;;;;;;;11.57;5.50;;;0.10;97.30;;;;;;4931450;29;20488;-73
2020/12/26 08:43:11;;;;;;;11.13;5.23;;;0.20;97.30;;;;;;4916400;29;20510;-73
2020/12/26 08:45:37;;;;;;;10.60;6.40;;;0.30;97.30;;;;;;4917789;29;20412;-73
2020/12/26 08:48:20;;;;;;;14.73;5.30;;;0.30;97.30;;;;;;4918205;29;20446;-73
2020/12/26 08:50:55;;;;;;;16.93;6.07;;;0.30;97.30;;;;;;4917378;29;20211;-74
2020/12/26 08:53:23;;;;;;;12.47;5.87;;;0.40;97.30;;;;;;4916302;29;20428;-74
2020/12/26 08:55:56;;;;;;;9.27;5.00;;;0.40;97.30;;;;;;4917490;29;20842;-73
2020/12/26 08:58:28;;;;;;;18.50;5.40;;;0.50;97.30;;;;;;4917905;29;20416;-74
2020/12/26 09:00:55;;;;;;;20.93;6.70;;;0.50;97.30;;;;;;4916476;29;20488;-72
2020/12/26 09:03:23;;;;;;;14.60;5.50;;;0.60;97.30;;;;;;4915970;29;20435;-73
2020/12/26 09:05:52;;;;;;;15.43;5.50;;;0.70;97.30;;;;;;4916064;29;20782;-74
2020/12/26 09:08:26;;;;;;;13.73;6.40;;;0.70;97.30;;;;;;4917965;29;20821;-73
2020/12/26 09:11:01;;;;;;;11.47;6.40;;;0.80;97.30;;;;;;4915734;29;20503;-73
2020/12/26 09:13:31;;;;;;;13.10;5.90;;;0.90;97.30;;;;;;4915871;29;20419;-73
2020/12/26 09:16:02;;;;;;;13.63;7.57;;;0.90;97.30;;;;;;4917034;29;20419;-73
2020/12/26 09:18:33;;;;;;;18.37;8.27;;;1.10;97.30;;;;;;4917033;29;20411;-72
2020/12/26 09:21:00;;;;;;;13.30;7.20;;;1.10;97.30;;;;;;4916655;29;20470;-73
2020/12/26 09:23:32;;;;;;;11.33;5.40;;;1.20;97.30;;;;;;4916777;29;20411;-73
2020/12/26 09:26:17;;;;;;;13.97;6.60;;;1.20;97.30;;;;;;4916972;29;20397;-72
2020/12/26 09:28:44;;;;;;;14.97;7.50;;;1.20;97.30;;;;;;4932096;29;20498;-73
2020/12/26 09:31:13;;;;;;;12.40;5.97;;;1.20;97.30;;;;;;4916905;29;20478;-73
2020/12/26 09:33:40;;;;;;;8.10;4.97;;;1.20;97.30;;;;;;4915505;29;20417;-73
2020/12/26 09:36:08;;;;;;;10.47;5.30;;;1.30;97.30;;;;;;4915741;29;21013;-73
2020/12/26 09:38:35;;;;;;;9.87;5.33;;;1.30;97.30;;;;;;4915659;29;20420;-73
2020/12/26 09:41:14;;;;;;;20.03;9.57;;;1.30;97.30;;;;;;4900015;29;20476;-73
2020/12/26 09:43:41;;;;;;;9.73;5.60;;;1.40;97.30;;;;;;4915485;29;20424;-72
2020/12/26 09:46:07;;;;;;;8.57;5.67;;;1.40;97.30;;;;;;4917083;29;20972;-73
2020/12/26 09:48:33;;;;;;;11.37;5.87;;;1.40;97.30;;;;;;4917163;29;20417;-73
2020/12/26 09:50:59;;;;;;;15.27;7.30;;;1.40;97.30;;;;;;4915571;29;20441;-73
2020/12/26 09:53:25;;;;;;;17.13;8.60;;;1.40;97.30;;;;;;4916786;29;20646;-73
2020/12/26 09:55:51;;;;;;;10.90;5.20;;;1.40;97.30;;;;;;4920132;29;20918;-74
2020/12/26 09:58:16;;;;;;;9.70;5.70;;;1.50;97.30;;;;;;4919216;29;20434;-73
2020/12/26 10:00:42;;;;;;;10.43;4.73;;;1.50;97.30;;;;;;4918706;29;20713;-73
2020/12/26 10:03:07;;;;;;;18.97;7.90;;;1.40;97.30;;;;;;4920486;29;20183;-74
2020/12/26 10:05:33;;;;;;;18.10;9.10;;;1.50;97.30;;;;;;4918979;29;20251;-73
2020/12/26 10:07:59;;;;;;;25.10;12.13;;;1.50;97.30;;;;;;4919306;29;20631;-73
2020/12/26 10:10:24;;;;;;;37.10;17.90;;;1.60;97.30;;;;;;4918870;29;20204;-73
2020/12/26 10:12:50;;;;;;;20.43;8.83;;;1.60;97.30;;;;;;4920262;29;20184;-73
2020/12/26 10:15:18;;;;;;;31.20;16.10;;;1.60;97.30;;;;;;4918727;29;20247;-73
2020/12/26 10:17:47;;;;;;;14.17;7.30;;;1.60;97.30;;;;;;4918780;29;20200;-73
2020/12/26 10:20:13;;;;;;;12.07;6.00;;;1.60;97.30;;;;;;4918877;29;20535;-73
2020/12/26 10:22:38;;;;;;;10.37;5.77;;;1.60;97.30;;;;;;4918944;29;20860;-73
2020/12/26 10:25:04;;;;;;;31.90;15.97;;;1.60;97.30;;;;;;4918667;29;20180;-73
2020/12/26 10:27:33;;;;;;;9.40;5.10;;;1.60;97.30;;;;;;4919180;29;20173;-73
2020/12/26 10:29:58;;;;;;;45.60;17.37;;;1.70;97.30;;;;;;4919148;29;20416;-73
2020/12/26 10:32:24;;;;;;;13.93;6.73;;;1.70;97.30;;;;;;4919911;29;20515;-73
2020/12/26 10:34:50;;;;;;;17.87;8.10;;;1.70;97.30;;;;;;4919804;29;20261;-73
2020/12/26 10:37:16;;;;;;;13.20;6.10;;;1.80;97.30;;;;;;4919962;29;20180;-73
2020/12/26 10:39:46;;;;;;;12.47;6.57;;;1.80;97.30;;;;;;4917430;29;20204;-73
2020/12/26 10:42:12;;;;;;;10.83;5.40;;;1.90;97.30;;;;;;4917577;29;20468;-74
2020/12/26 10:44:38;;;;;;;11.47;5.90;;;2.00;97.30;;;;;;4919945;29;20553;-73
2020/12/26 10:47:03;;;;;;;14.57;7.17;;;2.00;97.30;;;;;;4918725;29;20244;-73
2020/12/26 10:49:29;;;;;;;11.57;6.57;;;2.00;97.30;;;;;;4919730;29;20168;-73
2020/12/26 10:51:55;;;;;;;16.13;6.30;;;2.10;97.30;;;;;;4919403;29;20211;-72
2020/12/26 10:54:23;;;;;;;12.07;5.53;;;2.10;97.30;;;;;;4916011;29;20221;-72
2020/12/26 10:56:49;;;;;;;11.90;5.70;;;2.10;97.30;;;;;;4899839;29;20597;-72
2020/12/26 10:59:15;;;;;;;13.63;6.80;;;2.20;97.30;;;;;;4915943;29;20424;-72
2020/12/26 11:01:44;;;;;;;9.87;5.70;;;2.20;97.30;;;;;;4919272;29;20556;-72
2020/12/26 11:04:11;;;;;;;12.33;6.50;;;2.20;97.30;;;;;;4918284;29;20423;-72
2020/12/26 11:06:38;;;;;;;24.03;9.97;;;2.20;97.30;;;;;;4922391;29;20531;-72
2020/12/26 11:09:07;;;;;;;13.30;6.87;;;2.30;97.30;;;;;;4918401;29;20472;-72
2020/12/26 11:11:33;;;;;;;9.87;5.83;;;2.30;97.30;;;;;;4933070;29;20491;-72
2020/12/26 11:14:00;;;;;;;16.57;8.97;;;2.30;97.30;;;;;;4915956;29;20433;-73
2020/12/26 11:16:27;;;;;;;14.80;7.50;;;2.30;97.30;;;;;;4915703;29;20452;-73
2020/12/26 11:18:53;;;;;;;13.93;6.73;;;2.30;97.30;;;;;;4917199;29;20420;-73
2020/12/26 11:21:19;;;;;;;7.50;4.70;;;2.30;97.30;;;;;;4914464;29;20524;-73
2020/12/26 11:23:45;;;;;;;11.87;5.60;;;2.30;97.30;;;;;;4932801;29;20420;-73
2020/12/26 11:26:21;;;;;;;22.50;10.13;;;2.30;97.30;;;;;;4917630;29;20805;-72
2020/12/26 11:28:47;;;;;;;13.87;7.33;;;2.40;97.30;;;;;;4932799;29;20420;-72
2020/12/26 11:31:21;;;;;;;15.03;8.57;;;2.40;97.30;;;;;;4922022;29;20969;-73
2020/12/26 11:33:46;;;;;;;9.90;5.00;;;2.30;97.30;;;;;;4917669;29;20424;-73
2020/12/26 11:36:24;;;;;;;11.70;6.03;;;2.30;97.30;;;;;;4916611;29;20428;-73
2020/12/26 11:38:50;;;;;;;12.27;5.20;;;2.40;97.30;;;;;;4918212;29;20184;-73
2020/12/26 11:41:25;;;;;;;10.27;6.20;;;2.40;97.30;;;;;;4917268;29;20464;-73
2020/12/26 11:43:50;;;;;;;11.30;5.03;;;2.40;97.30;;;;;;4918483;29;20889;-73
2020/12/26 11:46:16;;;;;;;10.43;5.57;;;2.40;97.30;;;;;;4918441;29;20440;-73
2020/12/26 11:48:42;;;;;;;14.77;6.30;;;2.40;97.30;;;;;;4917133;29;20173;-73
2020/12/26 11:51:09;;;;;;;17.57;6.23;;;2.50;97.30;;;;;;4916744;29;20200;-73
2020/12/26 11:53:35;;;;;;;9.00;5.00;;;2.50;97.30;;;;;;4918010;29;20975;-73
2020/12/26 11:56:06;;;;;;;17.27;7.40;;;2.40;97.30;;;;;;4916983;29;20428;-73
2020/12/26 11:58:32;;;;;;;22.90;9.10;;;2.40;97.30;;;;;;4918131;29;20172;-73
2020/12/26 12:00:57;;;;;;;11.10;5.63;;;2.50;97.30;;;;;;4916362;29;20826;-73
2020/12/26 12:03:23;;;;;;;10.93;6.00;;;2.50;97.30;;;;;;4916554;29;20189;-73
2020/12/26 12:05:49;;;;;;;10.73;6.00;;;2.50;97.30;;;;;;4916579;29;20177;-73
2020/12/26 12:08:14;;;;;;;14.23;6.57;;;2.50;97.30;;;;;;4916770;29;20224;-73
2020/12/26 12:10:40;;;;;;;10.60;5.70;;;2.50;97.30;;;;;;4916680;29;20612;-73
2020/12/26 12:13:07;;;;;;;13.40;5.70;;;2.60;97.30;;;;;;4916501;29;20181;-73
2020/12/26 12:15:34;;;;;;;13.77;6.93;;;2.60;97.30;;;;;;4916761;29;20513;-73
2020/12/26 12:18:00;;;;;;;13.47;6.63;;;2.60;97.30;;;;;;4917452;29;20424;-72
2020/12/26 12:20:32;;;;;;;20.60;9.60;;;2.60;97.30;;;;;;4916354;29;20547;-73
2020/12/26 12:22:59;;;;;;;16.67;8.70;;;2.60;97.30;;;;;;4915312;29;20456;-73
2020/12/26 12:25:26;;;;;;;21.73;9.63;;;2.70;97.30;;;;;;4917643;29;20507;-73
2020/12/26 12:27:52;;;;;;;23.77;10.37;;;2.70;97.30;;;;;;4916541;29;20416;-73
2020/12/26 12:30:19;;;;;;;14.17;7.87;;;2.70;97.30;;;;;;4916672;29;20444;-74
2020/12/26 12:32:44;;;;;;;16.30;7.23;;;2.80;97.30;;;;;;4916090;29;20428;-73
2020/12/26 12:35:11;;;;;;;11.60;6.27;;;2.80;97.30;;;;;;4914951;29;20429;-75
2020/12/26 12:37:50;;;;;;;17.63;7.07;;;2.80;97.30;;;;;;4901960;29;20300;-74
2020/12/26 12:40:23;;;;;;;17.57;8.60;;;2.80;97.30;;;;;;4915954;29;20484;-73
2020/12/26 12:42:51;;;;;;;14.07;6.67;;;2.80;97.30;;;;;;4915641;29;20949;-74
2020/12/26 12:45:17;;;;;;;11.83;7.13;;;2.80;97.30;;;;;;4915460;29;20440;-74
2020/12/26 12:47:43;;;;;;;16.40;6.63;;;2.90;97.30;;;;;;4931614;29;20424;-73
2020/12/26 12:50:09;;;;;;;18.30;8.70;;;2.90;97.30;;;;;;4915580;29;20201;-74
2020/12/26 12:52:39;;;;;;;16.07;7.90;;;2.90;97.30;;;;;;4915143;29;20224;-74
2020/12/26 12:55:05;;;;;;;17.70;6.87;;;3.00;97.30;;;;;;4917335;29;20520;-74
2020/12/26 12:57:31;;;;;;;18.20;8.07;;;2.90;97.30;;;;;;4915412;29;20926;-74
2020/12/26 12:59:57;;;;;;;17.80;8.97;;;2.90;97.30;;;;;;4916529;29;20424;-73
2020/12/26 13:02:22;;;;;;;17.83;8.33;;;2.80;97.30;;;;;;4916307;29;20464;-73
2020/12/26 13:04:48;;;;;;;22.53;8.90;;;2.90;97.30;;;;;;4916515;29;20177;-74
2020/12/26 13:07:14;;;;;;;20.10;9.13;;;2.90;97.30;;;;;;4915248;29;20201;-73
2020/12/26 13:09:40;;;;;;;19.57;9.30;;;2.90;97.30;;;;;;4908684;29;20176;-74
2020/12/26 13:12:06;;;;;;;73.80;33.70;;;2.90;97.30;;;;;;4910794;29;20205;-74
2020/12/26 13:14:34;;;;;;;22.63;9.70;;;2.90;97.30;;;;;;4914887;29;20424;-72
2020/12/26 13:17:00;;;;;;;45.47;18.07;;;2.90;97.30;;;;;;4915877;29;20676;-72
2020/12/26 13:19:26;;;;;;;21.07;10.57;;;2.90;97.30;;;;;;4915845;29;20468;-72
2020/12/26 13:21:56;;;;;;;15.07;8.13;;;2.90;97.30;;;;;;4916121;29;20216;-72
2020/12/26 13:24:22;;;;;;;20.50;7.90;;;3.00;97.30;;;;;;4916823;29;20643;-72
2020/12/26 13:26:48;;;;;;;15.67;7.73;;;3.00;97.30;;;;;;4915766;29;20436;-74
2020/12/26 13:29:14;;;;;;;19.53;9.00;;;3.00;97.30;;;;;;4918014;29;20413;-74
2020/12/26 13:31:41;;;;;;;22.50;9.70;;;3.00;97.30;;;;;;4922129;29;20443;-73
2020/12/26 13:34:07;;;;;;;20.83;8.30;;;3.00;97.30;;;;;;4921838;29;20432;-73
2020/12/26 13:36:34;;;;;;;21.17;9.40;;;3.00;97.30;;;;;;4921940;29;20459;-73
2020/12/26 13:39:00;;;;;;;19.50;9.30;;;3.00;97.30;;;;;;4923079;29;20422;-73
2020/12/26 13:41:26;;;;;;;18.63;8.53;;;3.00;97.30;;;;;;4921596;29;20555;-74
2020/12/26 13:43:52;;;;;;;19.73;8.47;;;2.90;97.30;;;;;;4921595;29;20898;-74
2020/12/26 13:46:18;;;;;;;24.67;12.73;;;2.90;97.30;;;;;;4937910;29;20479;-73
2020/12/26 13:48:44;;;;;;;17.77;9.77;;;3.00;97.30;;;;;;4937376;29;20421;-74
2020/12/26 13:51:10;;;;;;;20.20;9.93;;;2.90;97.30;;;;;;4921897;29;20906;-73
2020/12/26 13:53:36;;;;;;;28.40;11.10;;;2.90;97.30;;;;;;4921512;29;20898;-73
2020/12/26 13:56:05;;;;;;;25.90;12.90;;;2.90;97.30;;;;;;4921547;29;20430;-73
2020/12/26 13:58:34;;;;;;;23.47;9.93;;;2.80;97.30;;;;;;4921797;29;20424;-73
2020/12/26 14:01:00;;;;;;;22.83;10.80;;;2.80;97.30;;;;;;4921039;29;20488;-73
2020/12/26 14:03:26;;;;;;;16.70;8.70;;;2.80;97.30;;;;;;4921436;29;20487;-73
2020/12/26 14:05:52;;;;;;;21.53;10.13;;;2.80;97.30;;;;;;4921399;29;20488;-73
2020/12/26 14:08:17;;;;;;;28.23;10.70;;;2.80;97.30;;;;;;4921415;29;20596;-73
2020/12/26 14:10:43;;;;;;;20.30;8.93;;;2.80;97.30;;;;;;4922523;29;20193;-73
2020/12/26 14:13:09;;;;;;;18.70;8.70;;;2.80;97.30;;;;;;4922886;29;20642;-73
2020/12/26 14:15:35;;;;;;;18.67;9.50;;;2.90;97.30;;;;;;4923090;29;20211;-72
2020/12/26 14:18:00;;;;;;;20.77;9.77;;;2.90;97.30;;;;;;4921453;29;20177;-73
2020/12/26 14:20:26;;;;;;;24.57;12.47;;;2.90;97.30;;;;;;4921316;29;20702;-73
2020/12/26 14:22:52;;;;;;;23.77;10.93;;;2.90;97.30;;;;;;4921283;29;20214;-73
2020/12/26 14:25:17;;;;;;;22.53;9.90;;;2.90;97.30;;;;;;4921214;29;20180;-73
2020/12/26 14:27:43;;;;;;;18.03;8.27;;;3.00;97.30;;;;;;4937419;29;20674;-72
2020/12/26 14:30:09;;;;;;;24.30;10.53;;;3.00;97.30;;;;;;4921387;29;20179;-72
2020/12/26 14:32:34;;;;;;;21.10;10.60;;;3.00;97.30;;;;;;4921248;29;20200;-72
2020/12/26 14:35:00;;;;;;;27.00;11.60;;;3.00;97.30;;;;;;4922339;29;20172;-72
2020/12/26 14:37:26;;;;;;;24.00;10.00;;;3.00;97.30;;;;;;4922476;29;20184;-72
2020/12/26 14:39:51;;;;;;;22.07;10.47;;;3.00;97.30;;;;;;4920842;29;20172;-72
2020/12/26 14:42:17;;;;;;;17.43;9.57;;;3.00;97.30;;;;;;4919430;29;20212;-72
2020/12/26 14:44:43;;;;;;;24.27;8.20;;;3.00;97.30;;;;;;4919245;29;20648;-72
2020/12/26 14:47:08;;;;;;;18.40;9.43;;;3.00;97.30;;;;;;4919643;29;20169;-72
2020/12/26 14:49:34;;;;;;;25.80;9.20;;;3.00;97.30;;;;;;4918135;29;20650;-72
2020/12/26 14:52:00;;;;;;;23.83;10.43;;;3.00;97.30;;;;;;4919486;29;20200;-72
2020/12/26 14:54:26;;;;;;;20.73;9.70;;;3.00;97.30;;;;;;4918513;29;20184;-72
2020/12/26 14:56:53;;;;;;;29.10;11.47;;;3.00;97.30;;;;;;4917780;29;20378;-72
2020/12/26 14:59:22;;;;;;;24.90;8.50;;;3.00;97.30;;;;;;4917772;29;20180;-73
2020/12/26 15:01:48;;;;;;;28.90;11.97;;;3.00;97.30;;;;;;4918631;29;20480;-72
2020/12/26 15:04:14;;;;;;;23.00;10.50;;;3.00;97.30;;;;;;4917509;29;20420;-73
2020/12/26 15:06:40;;;;;;;27.07;11.70;;;3.00;97.30;;;;;;4917466;29;20480;-74
2020/12/26 15:09:07;;;;;;;19.73;9.00;;;3.00;97.30;;;;;;4917794;29;20177;-73
2020/12/26 15:11:33;;;;;;;18.43;7.37;;;3.00;97.30;;;;;;4917827;29;20492;-72
2020/12/26 15:13:59;;;;;;;22.70;10.87;;;3.00;97.30;;;;;;4917634;29;20428;-72
2020/12/26 15:16:24;;;;;;;16.10;6.50;;;2.90;97.30;;;;;;4917964;29;20180;-72
2020/12/26 15:18:51;;;;;;;15.20;7.20;;;2.90;97.30;;;;;;4917450;29;20181;-74
2020/12/26 17:09:08;;;;;;;15.90;7.47;;;2.00;97.30;;;;;;5153778;23;20990;-72
2020/12/26 17:11:35;;;;;;;21.40;6.97;;;2.00;97.30;;;;;;4896982;29;20490;-71
2020/12/26 17:14:01;;;;;;;12.77;7.13;;;1.90;97.30;;;;;;4898943;29;20461;-71
2020/12/26 17:16:26;;;;;;;13.33;6.60;;;1.90;97.30;;;;;;4897862;29;21006;-71
2020/12/26 17:18:52;;;;;;;11.73;6.27;;;1.90;97.30;;;;;;4896491;29;20188;-71
2020/12/26 17:21:18;;;;;;;13.03;5.93;;;1.90;97.30;;;;;;4897775;29;20240;-71
2020/12/26 17:23:44;;;;;;;13.73;6.83;;;1.90;97.30;;;;;;4896698;29;20185;-72
2020/12/26 17:26:15;;;;;;;19.07;9.00;;;1.80;97.30;;;;;;4898056;29;20173;-72
2020/12/26 17:28:41;;;;;;;16.73;7.90;;;1.80;97.30;;;;;;4895504;29;20446;-72
2020/12/26 17:31:07;;;;;;;61.40;8.60;;;1.70;97.30;;;;;;4897431;29;20457;-72
2020/12/26 17:33:33;;;;;;;15.60;7.50;;;1.70;97.30;;;;;;4896283;29;20437;-71
2020/12/26 17:35:58;;;;;;;16.30;7.40;;;1.60;97.30;;;;;;4898011;29;20419;-71
2020/12/26 17:38:24;;;;;;;17.70;7.83;;;1.60;97.30;;;;;;4896302;29;20599;-71
2020/12/26 17:40:50;;;;;;;18.70;9.60;;;1.50;97.30;;;;;;4896389;29;20319;-72
2020/12/26 17:43:16;;;;;;;16.73;8.80;;;1.50;97.30;;;;;;4896754;29;20512;-71
2020/12/26 17:45:42;;;;;;;17.60;7.50;;;1.50;97.30;;;;;;4896346;29;20177;-72
2020/12/26 17:48:07;;;;;;;15.60;8.47;;;1.50;97.30;;;;;;4896452;29;20181;-72
2020/12/26 17:50:33;;;;;;;13.87;8.30;;;1.50;97.30;;;;;;4896474;29;20425;-71
2020/12/26 17:52:59;;;;;;;15.93;8.60;;;1.50;97.30;;;;;;4896105;29;20279;-71
2020/12/26 17:55:24;;;;;;;19.30;9.90;;;1.50;97.30;;;;;;4896435;29;20219;-72
2020/12/26 17:57:50;;;;;;;16.90;8.40;;;2.00;97.30;;;;;;4895929;29;20280;-71
2020/12/26 18:00:16;;;;;;;13.50;7.03;;;2.00;97.30;;;;;;4896093;29;20220;-71
2020/12/26 18:02:41;;;;;;;18.43;7.93;;;1.90;97.30;;;;;;4896281;29;20181;-71
2020/12/26 18:05:09;;;;;;;16.63;8.10;;;1.90;97.30;;;;;;4896189;29;20653;-72
2020/12/26 18:07:34;;;;;;;15.43;7.40;;;1.90;97.30;;;;;;4896744;29;20197;-71
2020/12/26 18:10:00;;;;;;;14.47;7.97;;;1.90;97.30;;;;;;4893499;29;20436;-72
2020/12/26 18:12:26;;;;;;;15.57;6.50;;;1.90;97.30;;;;;;4879176;29;20285;-71
2020/12/26 18:14:51;;;;;;;15.67;8.23;;;1.90;97.30;;;;;;4877615;29;20525;-71
2020/12/26 18:17:18;;;;;;;17.00;9.60;;;1.90;97.30;;;;;;4898460;29;20269;-72
2020/12/26 18:19:43;;;;;;;17.10;7.73;;;1.90;97.30;;;;;;4899282;29;20425;-71
2020/12/26 18:22:09;;;;;;;17.90;8.50;;;2.00;97.30;;;;;;4900586;29;20897;-71
2020/12/26 18:24:35;;;;;;;19.93;10.80;;;2.00;97.30;;;;;;4900790;29;20188;-71
2020/12/26 18:27:01;;;;;;;16.77;8.93;;;2.00;97.30;;;;;;4899357;29;20180;-71
2020/12/26 18:29:26;;;;;;;22.47;9.60;;;2.00;97.30;;;;;;4899432;29;20189;-71
2020/12/26 18:31:58;;;;;;;18.37;8.47;;;2.00;97.30;;;;;;4899194;29;20672;-70
2020/12/26 18:34:24;;;;;;;21.00;10.40;;;2.10;97.30;;;;;;4899438;29;20182;-71
2020/12/26 18:36:50;;;;;;;17.43;9.30;;;2.10;97.30;;;;;;4915003;29;20424;-71
2020/12/26 18:39:16;;;;;;;19.10;9.57;;;2.10;97.30;;;;;;4899968;29;20663;-70
2020/12/26 18:41:41;;;;;;;21.33;9.90;;;2.10;97.30;;;;;;4900541;29;20276;-71
2020/12/26 18:44:07;;;;;;;21.40;10.83;;;2.10;97.30;;;;;;4900555;29;20420;-71
2020/12/26 18:46:33;;;;;;;22.93;9.40;;;2.10;97.30;;;;;;4900657;29;20196;-70
2020/12/26 18:48:58;;;;;;;19.50;10.07;;;2.10;97.30;;;;;;4900032;29;20235;-70
2020/12/26 18:51:27;;;;;;;21.40;10.23;;;2.10;97.30;;;;;;4898876;29;20296;-70
2020/12/26 18:53:54;;;;;;;18.17;8.37;;;2.10;97.30;;;;;;4900503;29;20177;-72
2020/12/26 18:56:21;;;;;;;27.30;9.90;;;2.10;97.30;;;;;;4898992;29;20426;-71
2020/12/26 18:58:47;;;;;;;22.07;9.40;;;2.10;97.30;;;;;;4898932;29;20437;-70
2020/12/26 19:01:17;;;;;;;17.40;9.50;;;2.20;97.30;;;;;;4899085;29;20487;-71
2020/12/26 19:03:43;;;;;;;19.53;9.37;;;2.20;97.30;;;;;;4900249;29;20233;-74
2020/12/26 19:06:14;;;;;;;16.13;8.13;;;2.20;97.30;;;;;;4897538;29;20456;-71
2020/12/26 19:08:48;;;;;;;18.40;9.00;;;2.20;97.30;;;;;;4899964;29;20173;-71
2020/12/26 19:11:17;;;;;;;17.20;8.83;;;2.30;97.30;;;;;;4898882;29;20458;-71
2020/12/26 19:13:43;;;;;;;17.00;9.47;;;2.30;97.30;;;;;;4898727;29;20453;-71
2020/12/26 19:16:10;;;;;;;13.50;7.30;;;2.30;97.30;;;;;;4899767;29;20428;-72
2020/12/26 19:18:36;;;;;;;16.17;8.03;;;2.30;97.30;;;;;;4898274;29;20452;-71
2020/12/26 19:21:02;;;;;;;16.83;8.37;;;2.30;97.30;;;;;;4898532;29;20477;-71
2020/12/26 19:23:28;;;;;;;21.73;8.60;;;2.30;97.30;;;;;;4900063;29;20178;-71
2020/12/26 19:25:54;;;;;;;15.73;8.00;;;2.30;97.30;;;;;;4898763;29;20448;-71
2020/12/26 19:28:20;;;;;;;15.93;8.37;;;2.40;97.30;;;;;;4898503;29;20549;-70
2020/12/26 19:30:45;;;;;;;15.27;8.17;;;2.40;97.30;;;;;;4898314;29;20201;-71
2020/12/26 19:33:11;;;;;;;14.43;7.33;;;2.40;97.30;;;;;;4898380;29;20465;-71
2020/12/26 19:35:37;;;;;;;15.33;8.20;;;2.40;97.30;;;;;;4898381;29;20185;-71
2020/12/26 19:38:03;;;;;;;16.87;8.37;;;2.40;97.30;;;;;;4898183;29;20229;-70
2020/12/26 19:40:29;;;;;;;15.33;7.67;;;2.40;97.30;;;;;;4898149;29;20569;-71
2020/12/26 19:42:55;;;;;;;12.83;7.00;;;2.40;97.30;;;;;;4898179;29;20663;-71
2020/12/26 19:45:21;;;;;;;13.30;8.20;;;2.40;97.30;;;;;;4897937;29;20410;-72
2020/12/26 19:47:47;;;;;;;14.50;7.30;;;2.40;97.30;;;;;;4897765;29;20180;-71
2020/12/26 19:50:12;;;;;;;15.73;8.60;;;2.40;97.30;;;;;;4899257;29;20651;-71
2020/12/26 19:52:38;;;;;;;14.10;7.83;;;2.40;97.30;;;;;;4899353;29;20201;-71
2020/12/26 19:55:04;;;;;;;15.33;8.07;;;2.40;97.30;;;;;;4897880;29;20181;-71
2020/12/26 19:57:30;;;;;;;16.17;8.37;;;2.30;97.30;;;;;;4897823;29;20187;-71
2020/12/26 19:59:56;;;;;;;15.90;8.00;;;2.40;97.30;;;;;;4897674;29;20182;-71
2020/12/26 20:02:21;;;;;;;14.47;9.13;;;2.40;97.30;;;;;;4897736;29;20246;-71
2020/12/26 20:04:47;;;;;;;15.93;7.83;;;2.30;97.30;;;;;;4897718;29;20453;-71
2020/12/26 20:07:13;;;;;;;17.47;8.13;;;2.40;97.30;;;;;;4897718;29;20177;-71
2020/12/26 20:09:38;;;;;;;14.47;7.70;;;2.40;97.30;;;;;;4897564;29;20681;-71
2020/12/26 20:12:04;;;;;;;16.47;8.13;;;2.40;97.30;;;;;;4897508;29;20244;-71
2020/12/26 20:14:30;;;;;;;16.93;7.50;;;2.40;97.30;;;;;;4897396;29;20272;-71
2020/12/26 20:16:58;;;;;;;15.00;7.40;;;2.40;97.30;;;;;;4898014;29;20251;-72
2020/12/26 20:19:24;;;;;;;16.63;7.87;;;2.80;97.30;;;;;;4912502;29;20321;-71
2020/12/26 20:21:49;;;;;;;22.00;7.97;;;2.70;97.30;;;;;;4897201;29;20564;-71
2020/12/26 20:24:15;;;;;;;14.23;7.53;;;2.60;97.30;;;;;;4897018;29;20245;-71
2020/12/26 20:26:43;;;;;;;16.10;8.10;;;2.50;97.30;;;;;;4897577;29;20182;-71
2020/12/26 20:29:09;;;;;;;16.07;7.60;;;2.50;97.30;;;;;;4898575;29;20557;-71
2020/12/26 20:31:35;;;;;;;13.00;7.63;;;2.50;97.30;;;;;;4898410;29;20448;-71
2020/12/26 20:34:03;;;;;;;17.07;8.80;;;2.50;97.30;;;;;;4897256;29;20177;-70
2020/12/26 20:36:28;;;;;;;14.33;7.60;;;2.50;97.30;;;;;;4898465;29;20801;-72